sensor_id;sensor_type;location;lat;lon;timestamp;pressure;altitude;pressure_sealevel;temperature;humidity
71194;BME280;58903;47.210;8.618;2023-03-23T00:01:22;93800.63;;;27.96;37.18
71194;BME280;58903;47.210;8.618;2023-03-23T00:04:03;93791.59;;;27.96;37.40
71194;BME280;58903;47.210;8.618;2023-03-23T00:07:04;93799.88;;;27.96;37.45
71194;BME280;58903;47.210;8.618;2023-03-23T00:09:50;93799.88;;;27.96;37.41
71194;BME280;58903;47.210;8.618;2023-03-23T00:12:34;93782.16;;;27.91;37.13
71194;BME280;58903;47.210;8.618;2023-03-23T00:15:04;93793.41;;;27.93;37.38
71194;BME280;58903;47.210;8.618;2023-03-23T00:17:34;93789.88;;;27.93;37.77
71194;BME280;58903;47.210;8.618;2023-03-23T00:20:02;93787.69;;;27.91;37.58
71194;BME280;58903;47.210;8.618;2023-03-23T00:22:31;93786.41;;;27.92;37.59
71194;BME280;58903;47.210;8.618;2023-03-23T00:25:11;93791.94;;;27.92;37.39
71194;BME280;58903;47.210;8.618;2023-03-23T00:31:12;93795.41;;;27.93;37.22
71194;BME280;58903;47.210;8.618;2023-03-23T00:33:39;93791.72;;;27.90;37.53
71194;BME280;58903;47.210;8.618;2023-03-23T00:36:11;93799.47;;;27.92;37.21
71194;BME280;58903;47.210;8.618;2023-03-23T00:38:46;93790.44;;;27.91;37.69
71194;BME280;58903;47.210;8.618;2023-03-23T00:41:12;93791.72;;;27.90;37.22
71194;BME280;58903;47.210;8.618;2023-03-23T00:43:41;93793.75;;;27.90;37.42
71194;BME280;58903;47.210;8.618;2023-03-23T00:46:09;93786.22;;;27.90;37.33
71194;BME280;58903;47.210;8.618;2023-03-23T00:49:06;93792.47;;;27.91;37.21
71194;BME280;58903;47.210;8.618;2023-03-23T00:51:32;93794.69;;;27.92;37.42
71194;BME280;58903;47.210;8.618;2023-03-23T00:54:02;93786.94;;;27.91;37.13
71194;BME280;58903;47.210;8.618;2023-03-23T00:56:30;93781.19;;;27.89;37.39
71194;BME280;58903;47.210;8.618;2023-03-23T00:58:56;93788.41;;;27.92;37.38
71194;BME280;58903;47.210;8.618;2023-03-23T01:01:22;93784.16;;;27.91;37.22
71194;BME280;58903;47.210;8.618;2023-03-23T01:03:50;93789.28;;;27.87;37.14
71194;BME280;58903;47.210;8.618;2023-03-23T01:06:32;93780.47;;;27.88;37.49
71194;BME280;58903;47.210;8.618;2023-03-23T01:09:02;93771.63;;;27.90;37.31
71194;BME280;58903;47.210;8.618;2023-03-23T01:12:01;93782.50;;;27.88;37.49
71194;BME280;58903;47.210;8.618;2023-03-23T01:14:38;93776.97;;;27.88;37.41
71194;BME280;58903;47.210;8.618;2023-03-23T01:17:14;93788.03;;;27.88;36.81
71194;BME280;58903;47.210;8.618;2023-03-23T01:20:00;93778.44;;;27.89;37.20
71194;BME280;58903;47.210;8.618;2023-03-23T01:22:26;93772.91;;;27.89;36.91
71194;BME280;58903;47.210;8.618;2023-03-23T01:25:27;93789.50;;;27.89;37.31
71194;BME280;58903;47.210;8.618;2023-03-23T01:27:56;93770.69;;;27.87;37.34
71194;BME280;58903;47.210;8.618;2023-03-23T01:30:29;93774.72;;;27.86;37.61
71194;BME280;58903;47.210;8.618;2023-03-23T01:33:05;93772.50;;;27.85;37.69
71194;BME280;58903;47.210;8.618;2023-03-23T01:35:31;93777.50;;;27.86;37.60
71194;BME280;58903;47.210;8.618;2023-03-23T01:37:59;93773.25;;;27.85;37.39
71194;BME280;58903;47.210;8.618;2023-03-23T01:40:39;93765.50;;;27.84;37.40
71194;BME280;58903;47.210;8.618;2023-03-23T01:43:57;93766.78;;;27.83;37.58
71194;BME280;58903;47.210;8.618;2023-03-23T01:46:37;93768.09;;;27.82;37.35
71194;BME280;58903;47.210;8.618;2023-03-23T01:49:16;93777.09;;;27.82;37.29
71194;BME280;58903;47.210;8.618;2023-03-23T01:52:03;93774.31;;;27.82;37.55
71194;BME280;58903;47.210;8.618;2023-03-23T01:54:36;93779.13;;;27.82;37.40
71194;BME280;58903;47.210;8.618;2023-03-23T01:57:08;93786.13;;;27.83;37.37
71194;BME280;58903;47.210;8.618;2023-03-23T01:59:42;93786.88;;;27.83;37.42
71194;BME280;58903;47.210;8.618;2023-03-23T02:02:13;93793.16;;;27.84;37.33
71194;BME280;58903;47.210;8.618;2023-03-23T02:04:43;93788.91;;;27.83;37.27
71194;BME280;58903;47.210;8.618;2023-03-23T02:07:12;93790.91;;;27.82;37.60
71194;BME280;58903;47.210;8.618;2023-03-23T02:09:40;93786.13;;;27.83;37.56
71194;BME280;58903;47.210;8.618;2023-03-23T02:12:07;93795.16;;;27.83;37.47
71194;BME280;58903;47.210;8.618;2023-03-23T02:14:34;93798.69;;;27.84;37.23
71194;BME280;58903;47.210;8.618;2023-03-23T02:17:10;93801.66;;;27.86;37.29
71194;BME280;58903;47.210;8.618;2023-03-23T02:23:25;93802.38;;;27.86;37.37
71194;BME280;58903;47.210;8.618;2023-03-23T02:29:08;93802.72;;;27.83;36.73
71194;BME280;58903;47.210;8.618;2023-03-23T02:31:45;93804.22;;;27.84;37.49
71194;BME280;58903;47.210;8.618;2023-03-23T02:34:49;93788.91;;;27.83;37.29
71194;BME280;58903;47.210;8.618;2023-03-23T02:37:22;93797.19;;;27.83;37.39
71194;BME280;58903;47.210;8.618;2023-03-23T02:40:02;93784.88;;;27.84;37.40
71194;BME280;58903;47.210;8.618;2023-03-23T02:42:39;93779.13;;;27.82;37.03
71194;BME280;58903;47.210;8.618;2023-03-23T02:45:10;93776.91;;;27.80;37.66
71194;BME280;58903;47.210;8.618;2023-03-23T02:47:39;93777.44;;;27.79;37.54
71194;BME280;58903;47.210;8.618;2023-03-23T02:50:14;93780.22;;;27.79;37.45
71194;BME280;58903;47.210;8.618;2023-03-23T02:52:47;93774.69;;;27.79;36.89
71194;BME280;58903;47.210;8.618;2023-03-23T02:55:17;93775.22;;;27.77;37.44
71194;BME280;58903;47.210;8.618;2023-03-23T02:57:47;93766.38;;;27.79;37.41
71194;BME280;58903;47.210;8.618;2023-03-23T03:00:15;93764.69;;;27.76;37.63
71194;BME280;58903;47.210;8.618;2023-03-23T03:03:01;93768.94;;;27.77;37.32
71194;BME280;58903;47.210;8.618;2023-03-23T03:08:24;93769.16;;;27.79;37.46
71194;BME280;58903;47.210;8.618;2023-03-23T03:11:17;93766.94;;;27.77;37.45
71194;BME280;58903;47.210;8.618;2023-03-23T03:13:59;93766.19;;;27.77;37.27
71194;BME280;58903;47.210;8.618;2023-03-23T03:19:43;93759.16;;;27.76;37.15
71194;BME280;58903;47.210;8.618;2023-03-23T03:22:17;93756.41;;;27.76;37.97
71194;BME280;58903;47.210;8.618;2023-03-23T03:24:47;93753.63;;;27.76;37.32
71194;BME280;58903;47.210;8.618;2023-03-23T03:27:18;93741.31;;;27.77;37.79
71194;BME280;58903;47.210;8.618;2023-03-23T03:29:51;93744.09;;;27.77;37.29
71194;BME280;58903;47.210;8.618;2023-03-23T03:32:34;93736.88;;;27.74;37.46
71194;BME280;58903;47.210;8.618;2023-03-23T03:35:04;93732.09;;;27.74;37.30
71194;BME280;58903;47.210;8.618;2023-03-23T03:37:38;93720.47;;;27.76;37.41
71194;BME280;58903;47.210;8.618;2023-03-23T03:40:20;93724.53;;;27.75;37.10
71194;BME280;58903;47.210;8.618;2023-03-23T03:42:48;93721.59;;;27.73;37.26
71194;BME280;58903;47.210;8.618;2023-03-23T03:45:23;93723.00;;;27.66;38.17
71194;BME280;58903;47.210;8.618;2023-03-23T03:47:50;93719.28;;;27.63;37.42
71194;BME280;58903;47.210;8.618;2023-03-23T03:50:16;93723.88;;;27.61;37.20
71194;BME280;58903;47.210;8.618;2023-03-23T03:52:46;93718.91;;;27.59;37.61
71194;BME280;58903;47.210;8.618;2023-03-23T03:55:28;93719.97;;;27.56;37.81
71194;BME280;58903;47.210;8.618;2023-03-23T03:57:55;93720.72;;;27.57;37.62
71194;BME280;58903;47.210;8.618;2023-03-23T04:00:25;93722.72;;;27.56;37.87
71194;BME280;58903;47.210;8.618;2023-03-23T04:03:00;93724.75;;;27.56;37.25
71194;BME280;58903;47.210;8.618;2023-03-23T04:05:39;93718.50;;;27.55;37.58
71194;BME280;58903;47.210;8.618;2023-03-23T04:08:13;93712.97;;;27.55;37.65
71194;BME280;58903;47.210;8.618;2023-03-23T04:10:41;93704.69;;;27.55;37.93
71194;BME280;58903;47.210;8.618;2023-03-23T04:13:09;93711.47;;;27.54;37.82
71194;BME280;58903;47.210;8.618;2023-03-23T04:15:56;93707.44;;;27.55;37.72
71194;BME280;58903;47.210;8.618;2023-03-23T04:18:31;93704.69;;;27.55;37.32
71194;BME280;58903;47.210;8.618;2023-03-23T04:21:15;93699.69;;;27.54;37.72
71194;BME280;58903;47.210;8.618;2023-03-23T04:23:42;93703.00;;;27.52;37.58
71194;BME280;58903;47.210;8.618;2023-03-23T04:26:29;93696.72;;;27.52;37.56
71194;BME280;58903;47.210;8.618;2023-03-23T04:29:12;93698.22;;;27.53;37.88
71194;BME280;58903;47.210;8.618;2023-03-23T04:31:39;93690.44;;;27.51;37.52
71194;BME280;58903;47.210;8.618;2023-03-23T04:34:21;93695.97;;;27.51;37.77
71194;BME280;58903;47.210;8.618;2023-03-23T04:36:47;93686.22;;;27.50;37.80
71194;BME280;58903;47.210;8.618;2023-03-23T04:39:15;93692.28;;;27.49;37.81
71194;BME280;58903;47.210;8.618;2023-03-23T04:41:47;93695.97;;;27.51;37.67
71194;BME280;58903;47.210;8.618;2023-03-23T04:44:14;93674.97;;;27.48;37.96
71194;BME280;58903;47.210;8.618;2023-03-23T04:47:02;93682.72;;;27.50;38.00
71194;BME280;58903;47.210;8.618;2023-03-23T04:49:47;93684.72;;;27.49;37.68
71194;BME280;58903;47.210;8.618;2023-03-23T04:52:20;93692.28;;;27.49;37.52
71194;BME280;58903;47.210;8.618;2023-03-23T04:54:51;93699.28;;;27.50;37.84
71194;BME280;58903;47.210;8.618;2023-03-23T04:57:28;93697.06;;;27.48;37.66
71194;BME280;58903;47.210;8.618;2023-03-23T05:00:06;93697.28;;;27.50;37.30
71194;BME280;58903;47.210;8.618;2023-03-23T05:02:40;93703.00;;;27.52;37.89
71194;BME280;58903;47.210;8.618;2023-03-23T05:05:13;93704.47;;;27.53;37.70
71194;BME280;58903;47.210;8.618;2023-03-23T05:10:37;93706.50;;;27.53;37.59
71194;BME280;58903;47.210;8.618;2023-03-23T05:13:09;93702.25;;;27.52;37.58
71194;BME280;58903;47.210;8.618;2023-03-23T05:15:37;93717.34;;;27.51;38.14
71194;BME280;58903;47.210;8.618;2023-03-23T05:18:03;93714.38;;;27.49;37.51
71194;BME280;58903;47.210;8.618;2023-03-23T05:20:30;93702.59;;;27.48;37.69
71194;BME280;58903;47.210;8.618;2023-03-23T05:22:58;93709.59;;;27.49;37.66
71194;BME280;58903;47.210;8.618;2023-03-23T05:25:24;93709.06;;;27.51;37.52
71194;BME280;58903;47.210;8.618;2023-03-23T05:27:50;93706.81;;;27.49;37.50
71194;BME280;58903;47.210;8.618;2023-03-23T05:30:20;93707.03;;;27.51;37.51
71194;BME280;58903;47.210;8.618;2023-03-23T05:32:52;93712.53;;;27.51;37.58
71194;BME280;58903;47.210;8.618;2023-03-23T05:35:19;93713.28;;;27.52;37.66
71194;BME280;58903;47.210;8.618;2023-03-23T05:37:55;93700.78;;;27.51;37.92
71194;BME280;58903;47.210;8.618;2023-03-23T05:40:30;93718.06;;;27.51;37.83
71194;BME280;58903;47.210;8.618;2023-03-23T05:43:13;93712.53;;;27.51;37.41
71194;BME280;58903;47.210;8.618;2023-03-23T05:45:43;93715.50;;;27.53;37.41
71194;BME280;58903;47.210;8.618;2023-03-23T05:48:20;93715.50;;;27.53;37.44
71194;BME280;58903;47.210;8.618;2023-03-23T05:51:04;93715.50;;;27.53;37.13
71194;BME280;58903;47.210;8.618;2023-03-23T05:53:31;93718.28;;;27.53;37.80
71194;BME280;58903;47.210;8.618;2023-03-23T05:56:24;93718.50;;;27.55;37.48
71194;BME280;58903;47.210;8.618;2023-03-23T05:59:03;93721.47;;;27.57;37.85
71194;BME280;58903;47.210;8.618;2023-03-23T06:01:39;93725.69;;;27.58;37.39
71194;BME280;58903;47.210;8.618;2023-03-23T06:04:06;93716.66;;;27.58;37.31
71194;BME280;58903;47.210;8.618;2023-03-23T06:06:45;93724.41;;;27.59;37.02
71194;BME280;58903;47.210;8.618;2023-03-23T06:09:11;93725.69;;;27.58;37.48
71194;BME280;58903;47.210;8.618;2023-03-23T06:12:07;93736.75;;;27.58;37.67
71194;BME280;58903;47.210;8.618;2023-03-23T06:14:48;93734.84;;;27.53;37.40
71194;BME280;58903;47.210;8.618;2023-03-23T06:17:19;93737.59;;;27.53;37.59
71194;BME280;58903;47.210;8.618;2023-03-23T06:20:09;93736.75;;;27.58;37.62
71194;BME280;58903;47.210;8.618;2023-03-23T06:22:45;93740.03;;;27.57;37.34
71194;BME280;58903;47.210;8.618;2023-03-23T06:25:13;93746.84;;;27.56;37.27
71194;BME280;58903;47.210;8.618;2023-03-23T06:27:53;93736.34;;;27.54;37.21
71194;BME280;58903;47.210;8.618;2023-03-23T06:30:21;93741.66;;;27.52;37.29
71194;BME280;58903;47.210;8.618;2023-03-23T06:33:05;93748.44;;;27.51;37.10
71194;BME280;58903;47.210;8.618;2023-03-23T06:36:05;93736.34;;;27.54;37.48
71194;BME280;58903;47.210;8.618;2023-03-23T06:38:47;93757.88;;;27.56;37.36
71194;BME280;58903;47.210;8.618;2023-03-23T06:41:21;93757.50;;;27.52;37.17
71194;BME280;58903;47.210;8.618;2023-03-23T06:43:58;93741.88;;;27.54;36.59
71194;BME280;58903;47.210;8.618;2023-03-23T06:47:01;93776.72;;;27.57;37.04
71194;BME280;58903;47.210;8.618;2023-03-23T06:49:37;93739.84;;;27.55;37.12
71194;BME280;58903;47.210;8.618;2023-03-23T06:52:13;93763.97;;;27.54;36.99
71194;BME280;58903;47.210;8.618;2023-03-23T06:54:39;93774.06;;;27.52;37.34
71194;BME280;58903;47.210;8.618;2023-03-23T06:57:05;93737.09;;;27.55;37.17
71194;BME280;58903;47.210;8.618;2023-03-23T06:59:32;93732.31;;;27.55;37.33
71194;BME280;58903;47.210;8.618;2023-03-23T07:01:58;93763.56;;;27.50;37.15
71194;BME280;58903;47.210;8.618;2023-03-23T07:04:24;93756.75;;;27.51;37.87
71194;BME280;58903;47.210;8.618;2023-03-23T07:06:50;93749.75;;;27.50;37.47
71194;BME280;58903;47.210;8.618;2023-03-23T07:09:17;93778.84;;;27.51;37.33
71194;BME280;58903;47.210;8.618;2023-03-23T07:11:46;93754.94;;;27.54;37.33
71194;BME280;58903;47.210;8.618;2023-03-23T07:14:13;93747.94;;;27.53;37.51
71194;BME280;58903;47.210;8.618;2023-03-23T07:16:40;93756.22;;;27.53;37.13
71194;BME280;58903;47.210;8.618;2023-03-23T07:19:06;93759.19;;;27.55;37.26
71194;BME280;58903;47.210;8.618;2023-03-23T07:21:33;93761.00;;;27.52;37.35
71194;BME280;58903;47.210;8.618;2023-03-23T07:24:00;93768.00;;;27.53;37.19
71194;BME280;58903;47.210;8.618;2023-03-23T07:26:27;93781.81;;;27.53;37.17
71194;BME280;58903;47.210;8.618;2023-03-23T07:28:55;93779.28;;;27.55;37.58
71194;BME280;58903;47.210;8.618;2023-03-23T07:31:26;93783.31;;;27.54;37.11
71194;BME280;58903;47.210;8.618;2023-03-23T07:34:02;93784.56;;;27.53;37.01
71194;BME280;58903;47.210;8.618;2023-03-23T07:36:29;93782.75;;;27.56;37.12
71194;BME280;58903;47.210;8.618;2023-03-23T07:42:20;93797.13;;;27.54;37.40
71194;BME280;58903;47.210;8.618;2023-03-23T07:44:56;93783.84;;;27.53;37.44
71194;BME280;58903;47.210;8.618;2023-03-23T07:47:55;93790.63;;;27.52;37.14
71194;BME280;58903;47.210;8.618;2023-03-23T07:50:50;93795.41;;;27.51;37.37
71194;BME280;58903;47.210;8.618;2023-03-23T07:53:20;93794.69;;;27.51;37.22
71194;BME280;58903;47.210;8.618;2023-03-23T07:55:52;93797.97;;;27.49;37.24
71194;BME280;58903;47.210;8.618;2023-03-23T07:58:30;93812.53;;;27.50;37.30
71194;BME280;58903;47.210;8.618;2023-03-23T08:00:57;93820.06;;;27.49;37.19
71194;BME280;58903;47.210;8.618;2023-03-23T08:03:26;93822.13;;;27.49;36.93
71194;BME280;58903;47.210;8.618;2023-03-23T08:05:52;93812.72;;;27.52;37.26
71194;BME280;58903;47.210;8.618;2023-03-23T08:08:28;93816.78;;;27.51;36.84
71194;BME280;58903;47.210;8.618;2023-03-23T08:10:57;93806.47;;;27.51;37.07
71194;BME280;58903;47.210;8.618;2023-03-23T08:13:25;93808.31;;;27.49;37.19
71194;BME280;58903;47.210;8.618;2023-03-23T08:15:51;93807.75;;;27.50;37.34
71194;BME280;58903;47.210;8.618;2023-03-23T08:18:17;93811.28;;;27.51;37.34
71194;BME280;58903;47.210;8.618;2023-03-23T08:20:44;93814.75;;;27.51;37.21
71194;BME280;58903;47.210;8.618;2023-03-23T08:23:13;93813.47;;;27.52;37.30
71194;BME280;58903;47.210;8.618;2023-03-23T08:25:42;93821.97;;;27.54;36.81
71194;BME280;58903;47.210;8.618;2023-03-23T08:28:10;93818.47;;;27.54;37.41
71194;BME280;58903;47.210;8.618;2023-03-23T08:30:42;93821.22;;;27.54;37.40
71194;BME280;58903;47.210;8.618;2023-03-23T08:33:09;93828.75;;;27.53;37.48
71194;BME280;58903;47.210;8.618;2023-03-23T08:35:38;93831.53;;;27.53;37.50
71194;BME280;58903;47.210;8.618;2023-03-23T08:38:12;93835.78;;;27.54;37.27
71194;BME280;58903;47.210;8.618;2023-03-23T08:40:38;93834.84;;;27.52;37.20
71194;BME280;58903;47.210;8.618;2023-03-23T08:43:06;93828.56;;;27.51;37.49
71194;BME280;58903;47.210;8.618;2023-03-23T08:45:51;93837.06;;;27.53;37.35
71194;BME280;58903;47.210;8.618;2023-03-23T08:48:27;93841.31;;;27.54;37.65
71194;BME280;58903;47.210;8.618;2023-03-23T08:51:05;93841.31;;;27.54;37.50
71194;BME280;58903;47.210;8.618;2023-03-23T08:53:38;93847.38;;;27.53;37.43
71194;BME280;58903;47.210;8.618;2023-03-23T08:56:06;93844.28;;;27.56;37.78
71194;BME280;58903;47.210;8.618;2023-03-23T08:58:53;93841.50;;;27.56;37.46
71194;BME280;58903;47.210;8.618;2023-03-23T09:01:29;93843.53;;;27.56;37.56
71194;BME280;58903;47.210;8.618;2023-03-23T09:03:58;93854.06;;;27.57;37.87
71194;BME280;58903;47.210;8.618;2023-03-23T09:06:41;93851.59;;;27.54;37.71
71194;BME280;58903;47.210;8.618;2023-03-23T09:09:09;93853.84;;;27.55;37.72
71194;BME280;58903;47.210;8.618;2023-03-23T09:11:41;93861.91;;;27.53;37.43
71194;BME280;58903;47.210;8.618;2023-03-23T09:14:41;93860.66;;;27.54;37.78
71194;BME280;58903;47.210;8.618;2023-03-23T09:17:09;93867.66;;;27.55;37.61
71194;BME280;58903;47.210;8.618;2023-03-23T09:19:37;93866.72;;;27.53;37.52
71194;BME280;58903;47.210;8.618;2023-03-23T09:22:03;93868.53;;;27.50;37.31
71194;BME280;58903;47.210;8.618;2023-03-23T09:24:40;93879.97;;;27.54;37.70
71194;BME280;58903;47.210;8.618;2023-03-23T09:27:07;93876.47;;;27.54;37.65
71194;BME280;58903;47.210;8.618;2023-03-23T09:29:33;93879.44;;;27.56;37.29
71194;BME280;58903;47.210;8.618;2023-03-23T09:31:59;93880.72;;;27.55;37.73
71194;BME280;58903;47.210;8.618;2023-03-23T09:34:27;93881.47;;;27.55;37.57
71194;BME280;58903;47.210;8.618;2023-03-23T09:36:55;93877.44;;;27.56;37.55
71194;BME280;58903;47.210;8.618;2023-03-23T09:39:21;93877.63;;;27.58;37.41
71194;BME280;58903;47.210;8.618;2023-03-23T09:42:08;93871.91;;;27.56;37.48
71194;BME280;58903;47.210;8.618;2023-03-23T09:50:31;93876.41;;;27.46;37.69
71194;BME280;58903;47.210;8.618;2023-03-23T09:53:29;93874.91;;;27.45;37.56
71194;BME280;58903;47.210;8.618;2023-03-23T09:56:28;93885.22;;;27.45;37.88
71194;BME280;58903;47.210;8.618;2023-03-23T10:08:35;93883.00;;;27.43;37.81
71194;BME280;58903;47.210;8.618;2023-03-23T10:17:28;93876.00;;;27.42;37.64
71194;BME280;58903;47.210;8.618;2023-03-23T10:32:11;93877.25;;;27.41;37.67
71194;BME280;58903;47.210;8.618;2023-03-23T10:34:57;93884.06;;;27.40;37.14
71194;BME280;58903;47.210;8.618;2023-03-23T10:37:41;93874.50;;;27.41;37.35
71194;BME280;58903;47.210;8.618;2023-03-23T10:43:37;93874.50;;;27.41;37.36
71194;BME280;58903;47.210;8.618;2023-03-23T10:49:45;93869.94;;;27.44;37.71
71194;BME280;58903;47.210;8.618;2023-03-23T10:52:32;93871.94;;;27.43;37.20
71194;BME280;58903;47.210;8.618;2023-03-23T10:55:12;93859.44;;;27.42;37.66
71194;BME280;58903;47.210;8.618;2023-03-23T10:58:12;93872.16;;;27.45;37.49
71194;BME280;58903;47.210;8.618;2023-03-23T11:00:56;93866.09;;;27.47;37.49
71194;BME280;58903;47.210;8.618;2023-03-23T11:06:59;93864.19;;;27.42;37.33
71194;BME280;58903;47.210;8.618;2023-03-23T11:09:36;93861.44;;;27.42;37.21
71194;BME280;58903;47.210;8.618;2023-03-23T11:12:23;93871.75;;;27.41;37.62
71194;BME280;58903;47.210;8.618;2023-03-23T11:14:50;93867.16;;;27.44;38.04
71194;BME280;58903;47.210;8.618;2023-03-23T11:17:27;93860.88;;;27.43;37.47
71194;BME280;58903;47.210;8.618;2023-03-23T11:20:11;93868.88;;;27.47;37.17
71194;BME280;58903;47.210;8.618;2023-03-23T11:22:55;93861.31;;;27.47;37.80
71194;BME280;58903;47.210;8.618;2023-03-23T11:25:30;93857.81;;;27.47;37.49
71194;BME280;58903;47.210;8.618;2023-03-23T11:28:15;93860.59;;;27.47;37.09
71194;BME280;58903;47.210;8.618;2023-03-23T11:30:58;93861.09;;;27.45;37.44
71194;BME280;58903;47.210;8.618;2023-03-23T11:36:31;93855.72;;;27.40;37.11
71194;BME280;58903;47.210;8.618;2023-03-23T11:39:21;93849.63;;;27.41;37.28
71194;BME280;58903;47.210;8.618;2023-03-23T11:41:47;93846.88;;;27.41;37.88
71194;BME280;58903;47.210;8.618;2023-03-23T11:44:24;93834.78;;;27.44;37.45
71194;BME280;58903;47.210;8.618;2023-03-23T11:47:22;93847.69;;;27.49;37.51
71194;BME280;58903;47.210;8.618;2023-03-23T11:50:21;93854.72;;;27.50;37.41
71194;BME280;58903;47.210;8.618;2023-03-23T11:59:32;93841.91;;;27.60;37.02
71194;BME280;58903;47.210;8.618;2023-03-23T12:08:32;93827.25;;;27.66;37.22
71194;BME280;58903;47.210;8.618;2023-03-23T12:11:16;93830.75;;;27.66;37.19
71194;BME280;58903;47.210;8.618;2023-03-23T12:23:52;93821.56;;;27.71;37.04
71194;BME280;58903;47.210;8.618;2023-03-23T12:54:16;93801.56;;;27.78;37.00
71194;BME280;58903;47.210;8.618;2023-03-23T12:57:09;93799.34;;;27.77;36.79
71194;BME280;58903;47.210;8.618;2023-03-23T13:03:22;93802.44;;;27.73;36.36
71194;BME280;58903;47.210;8.618;2023-03-23T13:09:33;93800.63;;;27.76;36.80
71194;BME280;58903;47.210;8.618;2023-03-23T13:12:04;93796.78;;;27.79;36.77
71194;BME280;58903;47.210;8.618;2023-03-23T13:17:56;93791.06;;;27.77;37.40
71194;BME280;58903;47.210;8.618;2023-03-23T13:23:39;93791.47;;;27.81;36.76
71194;BME280;58903;47.210;8.618;2023-03-23T13:26:14;93789.25;;;27.79;36.91
71194;BME280;58903;47.210;8.618;2023-03-23T13:29:01;93784.22;;;27.78;36.99
71194;BME280;58903;47.210;8.618;2023-03-23T13:31:47;93781.28;;;27.76;36.91
71194;BME280;58903;47.210;8.618;2023-03-23T13:34:31;93772.59;;;27.72;36.81
71194;BME280;58903;47.210;8.618;2023-03-23T13:37:20;93775.75;;;27.76;37.22
71194;BME280;58903;47.210;8.618;2023-03-23T13:40:25;93784.03;;;27.76;36.60
71194;BME280;58903;47.210;8.618;2023-03-23T13:43:25;93780.13;;;27.71;36.72
71194;BME280;58903;47.210;8.618;2023-03-23T13:49:02;93777.03;;;27.75;36.87
71194;BME280;58903;47.210;8.618;2023-03-23T13:51:52;93783.31;;;27.75;36.74
71194;BME280;58903;47.210;8.618;2023-03-23T14:07:17;93785.72;;;27.79;36.67
71194;BME280;58903;47.210;8.618;2023-03-23T14:10:06;93785.72;;;27.79;36.57
71194;BME280;58903;47.210;8.618;2023-03-23T14:12:35;93780.22;;;27.79;36.40
71194;BME280;58903;47.210;8.618;2023-03-23T14:15:03;93781.28;;;27.76;36.98
71194;BME280;58903;47.210;8.618;2023-03-23T14:20:45;93782.03;;;27.76;36.91
71194;BME280;58903;47.210;8.618;2023-03-23T14:23:16;93786.81;;;27.76;36.25
71194;BME280;58903;47.210;8.618;2023-03-23T14:26:15;93793.28;;;27.78;36.95
71194;BME280;58903;47.210;8.618;2023-03-23T14:28:58;93793.81;;;27.77;37.04
71194;BME280;58903;47.210;8.618;2023-03-23T14:31:26;93793.81;;;27.77;36.76
71194;BME280;58903;47.210;8.618;2023-03-23T14:33:56;93796.03;;;27.78;36.73
71194;BME280;58903;47.210;8.618;2023-03-23T14:36:35;93805.06;;;27.79;36.73
71194;BME280;58903;47.210;8.618;2023-03-23T14:39:12;93805.63;;;27.77;36.84
71194;BME280;58903;47.210;8.618;2023-03-23T14:41:42;93802.13;;;27.77;36.61
71194;BME280;58903;47.210;8.618;2023-03-23T14:44:17;93801.91;;;27.75;36.86
71194;BME280;58903;47.210;8.618;2023-03-23T14:46:50;93803.38;;;27.76;36.77
71194;BME280;58903;47.210;8.618;2023-03-23T14:49:28;93810.41;;;27.77;36.66
71194;BME280;58903;47.210;8.618;2023-03-23T14:51:55;93807.44;;;27.75;36.60
71194;BME280;58903;47.210;8.618;2023-03-23T14:54:25;93801.91;;;27.75;36.57
71194;BME280;58903;47.210;8.618;2023-03-23T14:56:54;93814.44;;;27.76;36.80
71194;BME280;58903;47.210;8.618;2023-03-23T14:59:23;93814.97;;;27.74;36.80
71194;BME280;58903;47.210;8.618;2023-03-23T15:01:51;93808.19;;;27.75;36.79
71194;BME280;58903;47.210;8.618;2023-03-23T15:04:24;93808.91;;;27.76;36.84
71194;BME280;58903;47.210;8.618;2023-03-23T15:06:55;93801.16;;;27.74;37.00
71194;BME280;58903;47.210;8.618;2023-03-23T15:09:28;93797.84;;;27.76;36.74
71194;BME280;58903;47.210;8.618;2023-03-23T15:14:45;93796.78;;;27.79;36.78
71194;BME280;58903;47.210;8.618;2023-03-23T15:17:44;93797.66;;;27.74;37.07
71194;BME280;58903;47.210;8.618;2023-03-23T15:23:26;93800.97;;;27.72;36.98
71194;BME280;58903;47.210;8.618;2023-03-23T15:25:57;93805.19;;;27.73;37.02
71194;BME280;58903;47.210;8.618;2023-03-23T15:28:33;93798.19;;;27.72;36.91
71194;BME280;58903;47.210;8.618;2023-03-23T15:31:06;93816.25;;;27.73;37.10
71194;BME280;58903;47.210;8.618;2023-03-23T15:33:38;93808.31;;;27.70;37.39
71194;BME280;58903;47.210;8.618;2023-03-23T15:36:16;93801.50;;;27.71;36.94
71194;BME280;58903;47.210;8.618;2023-03-23T15:38:44;93795.25;;;27.70;37.02
71194;BME280;58903;47.210;8.618;2023-03-23T15:41:32;93786.00;;;27.68;37.28
71194;BME280;58903;47.210;8.618;2023-03-23T15:44:38;93781.75;;;27.67;37.31
71194;BME280;58903;47.210;8.618;2023-03-23T15:47:16;93787.06;;;27.64;37.36
71194;BME280;58903;47.210;8.618;2023-03-23T15:53:40;93778.19;;;27.58;37.19
71194;BME280;58903;47.210;8.618;2023-03-23T15:56:10;93775.22;;;27.56;37.78
71194;BME280;58903;47.210;8.618;2023-03-23T15:58:38;93776.72;;;27.57;37.20
71194;BME280;58903;47.210;8.618;2023-03-23T16:01:41;93775.75;;;27.55;37.10
71194;BME280;58903;47.210;8.618;2023-03-23T16:04:17;93774.47;;;27.56;37.33
71194;BME280;58903;47.210;8.618;2023-03-23T16:10:28;93772.44;;;27.56;37.40
71194;BME280;58903;47.210;8.618;2023-03-23T16:12:55;93761.94;;;27.55;37.49
71194;BME280;58903;47.210;8.618;2023-03-23T16:15:38;93763.41;;;27.56;37.35
71194;BME280;58903;47.210;8.618;2023-03-23T16:18:24;93761.00;;;27.52;37.27
71194;BME280;58903;47.210;8.618;2023-03-23T16:20:57;93765.78;;;27.52;37.39
71194;BME280;58903;47.210;8.618;2023-03-23T16:23:36;93765.22;;;27.53;38.01
71194;BME280;58903;47.210;8.618;2023-03-23T16:26:19;93761.34;;;27.49;37.57
71194;BME280;58903;47.210;8.618;2023-03-23T16:28:58;93751.22;;;27.51;37.51
71194;BME280;58903;47.210;8.618;2023-03-23T16:31:26;93757.50;;;27.52;37.37